Time;durP1;ratioP1;P1;durP2;ratioP2;P2;SDS_P1;SDS_P2;PMS_P1;PMS_P2;Temp;Humidity;BMP_temperature;BMP_pressure;BME280_temperature;BME280_humidity;BME280_pressure;Samples;Min_cycle;Max_cycle;Signal;HPM_P1;HPM_P2
2021/12/22 00:00:38;;;;;;;0.13;0.13;;;-3.10;99.90;;;;;;5056354;28;20044;-87
2021/12/22 00:03:06;;;;;;;0.57;0.57;;;-3.00;99.90;;;;;;5056862;28;20047;-86
2021/12/22 00:05:32;;;;;;;2.67;0.80;;;-3.00;99.90;;;;;;5057071;28;20131;-87
2021/12/22 00:07:58;;;;;;;0.10;0.10;;;-3.00;99.90;;;;;;5056080;28;20123;-87
2021/12/22 00:10:25;;;;;;;0.00;0.00;;;-3.10;99.90;;;;;;5057114;28;20132;-87
2021/12/22 00:12:52;;;;;;;0.60;0.32;;;-3.10;99.90;;;;;;5055934;28;20052;-87
2021/12/22 00:15:18;;;;;;;0.00;0.00;;;-3.20;99.90;;;;;;5056886;28;20373;-87
2021/12/22 00:17:44;;;;;;;0.35;0.35;;;-3.20;99.90;;;;;;5073705;28;20048;-87
2021/12/22 00:20:11;;;;;;;0.50;0.50;;;-3.20;99.90;;;;;;5056729;28;20041;-87
2021/12/22 00:22:37;;;;;;;0.00;0.00;;;-3.20;99.90;;;;;;5057519;28;20052;-87
2021/12/22 00:25:04;;;;;;;0.00;0.00;;;-3.20;99.90;;;;;;5056791;28;20040;-87
2021/12/22 00:27:30;;;;;;;0.00;0.00;;;-3.30;99.90;;;;;;5056742;28;20381;-87
2021/12/22 00:29:56;;;;;;;0.25;0.25;;;-3.30;99.90;;;;;;5073407;28;20052;-86
2021/12/22 00:32:23;;;;;;;0.63;0.47;;;-3.40;99.90;;;;;;5057171;28;20062;-87
2021/12/22 00:34:53;;;;;;;0.00;0.00;;;-3.40;99.90;;;;;;5056832;28;20088;-87
2021/12/22 00:37:26;;;;;;;0.10;0.10;;;-3.30;99.90;;;;;;5056386;28;20045;-87
2021/12/22 00:39:53;;;;;;;2.65;0.38;;;-3.40;99.90;;;;;;5056506;28;20060;-87
2021/12/22 00:42:20;;;;;;;0.22;0.22;;;-3.40;99.90;;;;;;5073167;28;20105;-87
2021/12/22 00:44:50;;;;;;;0.05;0.05;;;-3.30;99.90;;;;;;5056057;28;20546;-86
2021/12/22 00:47:17;;;;;;;0.65;0.65;;;-3.10;99.90;;;;;;5057607;28;20041;-86
2021/12/22 00:49:43;;;;;;;0.30;0.30;;;-3.30;99.90;;;;;;5060156;28;20040;-87
2021/12/22 00:52:09;;;;;;;0.00;0.00;;;-3.30;99.90;;;;;;5059997;28;20480;-87
2021/12/22 00:54:35;;;;;;;0.43;0.43;;;-3.40;99.90;;;;;;5059771;28;20051;-87
2021/12/22 00:57:05;;;;;;;0.17;0.17;;;-3.40;99.90;;;;;;5076348;28;20131;-87
2021/12/22 00:59:35;;;;;;;0.10;0.10;;;-3.10;99.90;;;;;;5059950;28;20083;-87
2021/12/22 01:02:05;;;;;;;0.05;0.05;;;-3.00;99.90;;;;;;5076549;28;20045;-88
2021/12/22 01:04:31;;;;;;;0.43;0.43;;;-3.40;99.90;;;;;;5059754;28;20049;-88
2021/12/22 01:07:00;;;;;;;0.00;0.00;;;-3.40;99.90;;;;;;5076545;28;20052;-87
2021/12/22 01:09:25;;;;;;;1.75;0.63;;;-3.30;99.90;;;;;;5059414;28;20044;-87
2021/12/22 01:11:51;;;;;;;0.00;0.00;;;-3.40;99.90;;;;;;5059721;28;20050;-87
2021/12/22 01:14:18;;;;;;;2.00;1.35;;;-3.40;99.90;;;;;;5059593;28;20059;-87
2021/12/22 01:16:47;;;;;;;0.35;0.08;;;-3.30;99.90;;;;;;5059558;28;20373;-87
2021/12/22 01:19:23;;;;;;;0.00;0.00;;;-3.20;99.90;;;;;;5059447;28;20048;-87
2021/12/22 01:21:57;;;;;;;0.00;0.00;;;-3.30;99.90;;;;;;5060270;28;20145;-86
2021/12/22 01:24:32;;;;;;;1.20;0.75;;;-3.20;99.90;;;;;;5075887;28;20051;-86
2021/12/22 01:27:05;;;;;;;0.00;0.00;;;-3.40;99.90;;;;;;5075759;28;20135;-87
2021/12/22 01:29:32;;;;;;;0.00;0.00;;;-3.40;99.90;;;;;;5076174;28;20158;-86
2021/12/22 01:31:58;;;;;;;0.20;0.20;;;-3.40;99.90;;;;;;5075291;28;20053;-86
2021/12/22 01:34:25;;;;;;;0.32;0.25;;;-3.50;99.90;;;;;;5059779;28;20059;-87
2021/12/22 01:36:51;;;;;;;0.00;0.00;;;-3.50;99.90;;;;;;5059318;28;20101;-87
2021/12/22 01:39:17;;;;;;;0.00;0.00;;;-3.50;99.90;;;;;;5076604;28;20059;-87
2021/12/22 01:41:43;;;;;;;0.00;0.00;;;-3.50;99.90;;;;;;5059192;28;20040;-87
2021/12/22 01:44:10;;;;;;;0.00;0.00;;;-3.50;99.90;;;;;;5059766;28;20127;-87
2021/12/22 01:49:16;;;;;;;0.20;0.20;;;-3.60;99.90;;;;;;5075074;28;20174;-86
2021/12/22 01:51:56;;;;;;;0.00;0.00;;;-3.50;99.90;;;;;;5074472;28;20608;-86
2021/12/22 01:54:49;;;;;;;0.00;0.00;;;-3.50;99.90;;;;;;5058412;28;20066;-87
2021/12/22 01:57:19;;;;;;;0.20;0.20;;;-3.60;99.90;;;;;;5058297;28;20056;-86
2021/12/22 01:59:47;;;;;;;0.98;0.98;;;-3.70;99.90;;;;;;5057145;28;20044;-86
2021/12/22 02:02:14;;;;;;;0.00;0.00;;;-3.60;99.90;;;;;;5058409;28;20049;-87
2021/12/22 02:04:41;;;;;;;0.00;0.00;;;-3.70;99.90;;;;;;5058327;28;20053;-87
2021/12/22 02:07:08;;;;;;;0.22;0.22;;;-3.70;99.90;;;;;;5058099;28;20075;-87
2021/12/22 02:12:19;;;;;;;;;;;-3.70;99.90;;;;;;5075226;28;20056;-87
2021/12/22 02:14:46;;;;;;;1.60;0.63;;;-3.60;99.90;;;;;;5058212;28;19920;-87
2021/12/22 02:17:13;;;;;;;0.15;0.15;;;-3.60;99.90;;;;;;5058035;28;20132;-87
2021/12/22 02:19:43;;;;;;;0.00;0.00;;;-3.60;99.90;;;;;;5058188;28;20052;-87
2021/12/22 02:22:12;;;;;;;0.75;0.75;;;-3.60;99.90;;;;;;5074594;28;20048;-87
2021/12/22 02:24:40;;;;;;;0.00;0.00;;;-3.70;99.90;;;;;;5075113;28;20412;-87
2021/12/22 02:27:13;;;;;;;0.00;0.00;;;-3.70;99.90;;;;;;5057887;28;20048;-87
2021/12/22 02:29:40;;;;;;;0.00;0.00;;;-3.00;99.90;;;;;;5058511;28;20059;-87
2021/12/22 02:32:14;;;;;;;0.25;0.25;;;-3.70;99.90;;;;;;5058241;28;20045;-87
2021/12/22 02:34:43;;;;;;;0.63;0.63;;;-3.60;99.90;;;;;;5074722;28;20059;-87
2021/12/22 02:37:14;;;;;;;0.30;0.30;;;-3.70;99.90;;;;;;5057700;28;20075;-87
2021/12/22 02:39:57;;;;;;;0.00;0.00;;;-3.70;99.90;;;;;;5058129;28;20059;-87
2021/12/22 02:42:34;;;;;;;0.00;0.00;;;-3.60;99.90;;;;;;5074131;28;20075;-87
2021/12/22 02:45:25;;;;;;;0.00;0.00;;;-3.80;99.90;;;;;;5057462;28;20442;-88
2021/12/22 02:47:52;;;;;;;0.15;0.15;;;-3.70;99.90;;;;;;5054998;28;20398;-86
2021/12/22 02:50:17;;;;;;;2.63;1.15;;;-3.80;99.90;;;;;;5073752;28;20040;-87
2021/12/22 02:53:03;;;;;;;0.03;0.03;;;-3.70;99.90;;;;;;5073566;28;20055;-87
2021/12/22 02:55:41;;;;;;;0.00;0.00;;;-3.90;99.90;;;;;;5073809;28;20048;-87
2021/12/22 02:58:08;;;;;;;0.10;0.03;;;-3.80;99.90;;;;;;5057497;28;20112;-87
2021/12/22 03:00:48;;;;;;;0.47;0.47;;;-3.90;99.90;;;;;;5073590;28;20078;-87
2021/12/22 03:03:31;;;;;;;0.00;0.00;;;-3.70;99.90;;;;;;5057180;28;20476;-88
2021/12/22 03:06:00;;;;;;;0.15;0.15;;;-3.80;99.90;;;;;;5074003;28;20063;-87
2021/12/22 03:08:25;;;;;;;0.00;0.00;;;-3.80;99.90;;;;;;5056887;28;20139;-87
2021/12/22 03:10:53;;;;;;;0.10;0.10;;;-3.80;99.90;;;;;;5056129;28;20131;-86
2021/12/22 03:13:24;;;;;;;0.00;0.00;;;-3.90;99.90;;;;;;5057146;28;20048;-87
2021/12/22 03:15:50;;;;;;;0.00;0.00;;;-3.80;99.90;;;;;;5056686;28;20090;-86
2021/12/22 03:18:17;;;;;;;0.00;0.00;;;-4.00;99.90;;;;;;5073386;28;20044;-87
2021/12/22 03:20:45;;;;;;;0.00;0.00;;;-3.90;99.90;;;;;;5072901;28;20504;-86
2021/12/22 03:23:11;;;;;;;0.38;0.08;;;-3.90;99.90;;;;;;5073224;28;20042;-87
2021/12/22 03:25:39;;;;;;;0.13;0.00;;;-3.90;99.90;;;;;;5056253;28;20107;-87
2021/12/22 03:28:05;;;;;;;0.00;0.00;;;-3.80;99.90;;;;;;5072969;28;20052;-86
2021/12/22 03:30:32;;;;;;;0.05;0.05;;;-3.80;99.90;;;;;;5056210;28;20373;-86
2021/12/22 03:32:59;;;;;;;0.00;0.00;;;-3.60;99.90;;;;;;5073063;28;20051;-88
2021/12/22 03:35:25;;;;;;;0.32;0.25;;;-3.70;99.90;;;;;;5056120;28;20133;-86
2021/12/22 03:37:55;;;;;;;0.00;0.00;;;-3.50;99.90;;;;;;5056327;28;20457;-87
2021/12/22 03:40:23;;;;;;;0.00;0.00;;;-3.90;99.90;;;;;;5056421;28;20491;-86
2021/12/22 03:42:50;;;;;;;0.32;0.32;;;-3.90;99.90;;;;;;5072920;28;20045;-86
2021/12/22 03:45:17;;;;;;;0.00;0.00;;;-3.90;99.90;;;;;;5056275;28;20405;-86
2021/12/22 03:47:44;;;;;;;0.00;0.00;;;-3.90;99.90;;;;;;5056271;28;20040;-87
2021/12/22 03:50:10;;;;;;;0.30;0.20;;;-3.90;99.90;;;;;;5056187;28;20087;-87
2021/12/22 03:52:36;;;;;;;0.00;0.00;;;-3.90;99.90;;;;;;5055664;28;20059;-86
2021/12/22 03:55:03;;;;;;;0.00;0.00;;;-3.90;99.90;;;;;;5056849;28;20051;-87
2021/12/22 03:57:29;;;;;;;0.08;0.08;;;-3.90;99.90;;;;;;5056208;28;20392;-87
2021/12/22 03:59:58;;;;;;;0.75;0.47;;;-4.00;99.90;;;;;;5073158;28;20048;-87
2021/12/22 04:02:27;;;;;;;0.00;0.00;;;-3.90;99.90;;;;;;5056277;28;20052;-87
2021/12/22 04:04:53;;;;;;;1.13;0.52;;;-3.90;99.90;;;;;;5056477;28;20055;-87
2021/12/22 04:07:19;;;;;;;0.35;0.35;;;-3.90;99.90;;;;;;5055707;28;20044;-87
2021/12/22 04:09:46;;;;;;;0.00;0.00;;;-4.00;99.90;;;;;;5056123;28;20049;-87
2021/12/22 04:12:12;;;;;;;0.00;0.00;;;-3.90;99.90;;;;;;5055820;28;20478;-87
2021/12/22 04:14:38;;;;;;;0.03;0.03;;;-4.00;99.90;;;;;;5055334;28;20053;-87
2021/12/22 04:17:05;;;;;;;0.00;0.00;;;-4.00;99.90;;;;;;5072651;28;20503;-88
2021/12/22 04:19:30;;;;;;;2.63;1.85;;;-4.00;99.90;;;;;;5056422;28;20506;-87
2021/12/22 04:21:56;;;;;;;0.25;0.25;;;-4.00;99.90;;;;;;5056679;28;20090;-87
2021/12/22 04:24:23;;;;;;;0.13;0.13;;;-3.90;99.90;;;;;;5059887;28;20108;-87
2021/12/22 04:26:51;;;;;;;0.10;0.10;;;-3.90;99.90;;;;;;5060026;28;20141;-87
2021/12/22 04:29:18;;;;;;;0.00;0.00;;;-4.10;99.90;;;;;;5059586;28;20049;-87
2021/12/22 04:31:44;;;;;;;0.45;0.45;;;-3.90;99.90;;;;;;5077282;28;20048;-86
2021/12/22 04:34:09;;;;;;;0.00;0.00;;;-3.90;99.90;;;;;;5076644;28;20498;-86
2021/12/22 04:36:36;;;;;;;0.00;0.00;;;-4.00;99.90;;;;;;5076916;28;20040;-87
2021/12/22 04:39:04;;;;;;;0.65;0.40;;;-4.00;99.90;;;;;;5059852;28;20048;-87
2021/12/22 04:41:29;;;;;;;0.25;0.25;;;-4.00;99.90;;;;;;5060131;28;20055;-86
2021/12/22 04:43:55;;;;;;;0.32;0.32;;;-3.70;99.90;;;;;;5060271;28;20057;-87
2021/12/22 04:46:21;;;;;;;0.10;0.10;;;-4.00;99.90;;;;;;5060138;28;20106;-86
2021/12/22 04:48:48;;;;;;;1.60;0.38;;;-4.10;99.90;;;;;;5076147;28;20044;-87
2021/12/22 04:51:23;;;;;;;0.20;0.20;;;-3.90;99.90;;;;;;5059691;28;20087;-87
2021/12/22 04:54:01;;;;;;;0.00;0.00;;;-4.00;99.90;;;;;;5059926;28;20406;-86
2021/12/22 04:56:27;;;;;;;4.07;0.65;;;-4.10;99.90;;;;;;5059601;28;20045;-87
2021/12/22 04:58:52;;;;;;;0.05;0.05;;;-4.10;99.90;;;;;;5059418;28;20197;-86
2021/12/22 05:01:18;;;;;;;0.65;0.43;;;-4.20;99.90;;;;;;5059593;28;20037;-86
2021/12/22 05:03:44;;;;;;;1.73;1.65;;;-4.20;99.90;;;;;;5059571;28;20494;-87
2021/12/22 05:06:10;;;;;;;0.00;0.00;;;-4.10;99.90;;;;;;5059894;28;20045;-86
2021/12/22 05:08:35;;;;;;;0.00;0.00;;;-4.10;99.90;;;;;;5076379;28;20128;-87
2021/12/22 05:11:01;;;;;;;1.08;0.52;;;-4.20;99.90;;;;;;5060103;28;20044;-86
2021/12/22 05:13:29;;;;;;;0.55;0.55;;;-4.10;99.90;;;;;;5075837;28;20044;-88
2021/12/22 05:15:54;;;;;;;0.00;0.00;;;-3.60;99.90;;;;;;5059373;28;20404;-87
2021/12/22 05:20:46;;;;;;;0.30;0.30;;;-4.20;99.90;;;;;;5076161;28;20048;-87
2021/12/22 05:23:12;;;;;;;0.10;0.10;;;-4.20;99.90;;;;;;5059086;28;20072;-87
2021/12/22 05:25:37;;;;;;;1.40;1.27;;;-4.20;99.90;;;;;;5059764;28;20094;-86
2021/12/22 05:28:04;;;;;;;0.00;0.00;;;-4.00;99.90;;;;;;5059042;28;20040;-86
2021/12/22 05:30:30;;;;;;;0.00;0.00;;;-4.20;99.90;;;;;;5059270;28;20565;-87
2021/12/22 05:32:55;;;;;;;0.82;0.82;;;-4.10;99.90;;;;;;5059256;28;20044;-85
2021/12/22 05:35:22;;;;;;;0.55;0.55;;;-4.20;99.90;;;;;;5058480;28;20078;-85
2021/12/22 05:37:48;;;;;;;0.00;0.00;;;-3.80;99.90;;;;;;5076702;28;20056;-89
2021/12/22 05:40:14;;;;;;;0.00;0.00;;;-4.20;99.90;;;;;;5060139;28;20553;-89
2021/12/22 05:42:42;;;;;;;0.05;0.05;;;-4.20;99.90;;;;;;5077836;28;20048;-89
2021/12/22 05:45:08;;;;;;;0.00;0.00;;;-4.20;99.90;;;;;;5068181;28;20048;-87
2021/12/22 05:47:34;;;;;;;0.55;0.55;;;-4.30;99.90;;;;;;5085722;28;20040;-87
2021/12/22 05:50:03;;;;;;;0.00;0.00;;;-4.30;99.90;;;;;;5076690;28;20067;-88
2021/12/22 05:52:29;;;;;;;0.08;0.08;;;-4.30;99.90;;;;;;5058577;28;20049;-84
2021/12/22 05:54:55;;;;;;;0.08;0.08;;;-4.30;99.90;;;;;;5076237;28;20056;-85
2021/12/22 05:57:21;;;;;;;0.00;0.00;;;-4.30;99.90;;;;;;5075490;28;20469;-84
2021/12/22 05:59:47;;;;;;;0.38;0.38;;;-4.30;99.90;;;;;;5059098;28;20484;-84
2021/12/22 06:02:13;;;;;;;0.20;0.20;;;-4.30;99.90;;;;;;5059259;28;20064;-83
2021/12/22 06:04:39;;;;;;;0.10;0.10;;;-4.30;99.90;;;;;;5058573;28;20036;-83
2021/12/22 06:07:05;;;;;;;0.00;0.00;;;-4.30;99.90;;;;;;5075582;28;20043;-83
2021/12/22 06:09:30;;;;;;;0.00;0.00;;;-4.30;99.90;;;;;;5075524;28;20468;-83
2021/12/22 06:11:56;;;;;;;0.55;0.47;;;-4.30;99.90;;;;;;5059025;28;20049;-89
2021/12/22 06:14:22;;;;;;;0.60;0.60;;;-4.30;99.90;;;;;;5059558;28;20051;-84
2021/12/22 06:16:48;;;;;;;0.22;0.22;;;-4.40;99.90;;;;;;5075161;28;20392;-83
2021/12/22 06:19:15;;;;;;;0.03;0.03;;;-4.40;99.90;;;;;;5058735;28;20137;-86
2021/12/22 06:21:41;;;;;;;0.10;0.10;;;-4.40;99.90;;;;;;5059173;28;20055;-86
2021/12/22 06:24:08;;;;;;;0.00;0.00;;;-4.40;99.90;;;;;;5059328;28;20052;-83
2021/12/22 06:26:34;;;;;;;0.00;0.00;;;-4.40;99.90;;;;;;5058510;28;20139;-82
2021/12/22 06:29:00;;;;;;;0.05;0.05;;;-4.10;99.90;;;;;;5058479;28;20048;-83
2021/12/22 06:31:26;;;;;;;0.95;0.88;;;-3.90;99.90;;;;;;5058470;28;20040;-82
2021/12/22 06:33:52;;;;;;;0.10;0.10;;;-3.60;99.90;;;;;;5053340;28;20037;-82
2021/12/22 06:36:18;;;;;;;0.00;0.00;;;-3.80;99.90;;;;;;5054887;28;20040;-82
2021/12/22 06:38:44;;;;;;;3.85;0.98;;;-3.70;99.90;;;;;;5054942;28;20051;-82
2021/12/22 06:41:10;;;;;;;1.45;0.17;;;-3.60;99.90;;;;;;5054993;28;20056;-80
2021/12/22 06:43:36;;;;;;;0.20;0.20;;;-3.60;99.90;;;;;;5038363;28;20044;-81
2021/12/22 06:46:02;;;;;;;0.20;0.20;;;-3.50;99.90;;;;;;5038568;28;20052;-81
2021/12/22 06:48:28;;;;;;;0.00;0.00;;;-3.40;99.90;;;;;;5055113;28;20514;-82
2021/12/22 06:50:56;;;;;;;0.30;0.10;;;-3.40;99.90;;;;;;5055146;28;20093;-85
2021/12/22 06:53:23;;;;;;;5.35;1.00;;;-2.20;99.90;;;;;;5044197;28;20566;-85
2021/12/22 06:55:54;;;;;;;0.00;0.00;;;-3.60;99.90;;;;;;5071795;28;20056;-85
2021/12/22 06:58:22;;;;;;;0.00;0.00;;;-3.70;99.90;;;;;;5058713;28;20045;-85
2021/12/22 07:00:50;;;;;;;0.00;0.00;;;-3.80;99.90;;;;;;5058330;28;20383;-85
2021/12/22 07:03:16;;;;;;;0.00;0.00;;;-3.70;99.90;;;;;;5068788;28;20055;-85
2021/12/22 07:05:42;;;;;;;0.00;0.00;;;-3.90;99.90;;;;;;5071436;28;20052;-86
2021/12/22 07:08:07;;;;;;;0.00;0.00;;;-3.30;99.90;;;;;;5044073;28;20037;-85
2021/12/22 07:10:33;;;;;;;0.80;0.45;;;-4.00;99.90;;;;;;5063618;28;20090;-85
2021/12/22 07:13:00;;;;;;;0.00;0.00;;;-3.90;99.90;;;;;;5044807;28;20099;-85
2021/12/22 07:15:25;;;;;;;0.00;0.00;;;-3.90;99.90;;;;;;5049184;28;20044;-85
2021/12/22 07:17:52;;;;;;;0.10;0.10;;;-3.90;99.90;;;;;;5050128;28;20036;-85
2021/12/22 07:20:19;;;;;;;0.77;0.77;;;-4.00;99.90;;;;;;5056535;28;20048;-84
2021/12/22 07:22:45;;;;;;;0.00;0.00;;;-4.00;99.90;;;;;;5054634;28;20453;-85
2021/12/22 07:25:12;;;;;;;0.00;0.00;;;-4.00;99.90;;;;;;5041908;28;20049;-85
2021/12/22 07:27:38;;;;;;;0.00;0.00;;;-4.20;99.90;;;;;;5037911;28;20110;-84
2021/12/22 07:30:05;;;;;;;0.73;0.65;;;-4.20;99.90;;;;;;5054340;28;20045;-85
2021/12/22 07:32:31;;;;;;;0.00;0.00;;;-4.20;99.90;;;;;;5062145;28;20060;-86
2021/12/22 07:35:15;;;;;;;1.77;0.35;;;-4.20;99.90;;;;;;5066685;28;20045;-86
2021/12/22 07:37:40;;;;;;;4.78;0.90;;;-4.20;99.90;;;;;;5074220;28;20040;-86
2021/12/22 07:40:09;;;;;;;0.00;0.00;;;-4.10;99.90;;;;;;5057513;28;20116;-86
2021/12/22 07:42:41;;;;;;;0.40;0.35;;;-4.10;99.90;;;;;;5057758;28;20048;-86
2021/12/22 07:45:11;;;;;;;0.05;0.05;;;-4.20;99.90;;;;;;5058520;28;20056;-86
2021/12/22 07:47:39;;;;;;;0.17;0.17;;;-4.20;99.90;;;;;;5057174;28;20041;-87
2021/12/22 07:50:07;;;;;;;0.20;0.20;;;-4.30;99.90;;;;;;5073965;28;20047;-86
2021/12/22 07:52:35;;;;;;;0.00;0.00;;;-4.20;99.90;;;;;;5068516;28;20064;-88
2021/12/22 07:55:01;;;;;;;0.00;0.00;;;-4.10;99.90;;;;;;5046490;28;20055;-87
2021/12/22 07:57:27;;;;;;;0.43;0.35;;;-4.20;99.90;;;;;;5047152;28;20045;-86
2021/12/22 07:59:55;;;;;;;0.00;0.00;;;-4.20;99.90;;;;;;5045924;28;20036;-87
2021/12/22 08:02:23;;;;;;;0.10;0.10;;;-4.10;99.90;;;;;;5060870;28;20132;-87
2021/12/22 08:04:49;;;;;;;0.00;0.00;;;-4.00;99.90;;;;;;5061833;28;20041;-87
2021/12/22 08:07:18;;;;;;;0.25;0.25;;;-4.00;99.90;;;;;;5043014;28;20492;-88
2021/12/22 08:09:49;;;;;;;0.00;0.00;;;-4.00;99.90;;;;;;5047145;28;20127;-87
2021/12/22 08:12:29;;;;;;;0.00;0.00;;;-3.90;99.90;;;;;;5043885;28;20048;-89
2021/12/22 08:14:57;;;;;;;0.00;0.00;;;-3.80;99.90;;;;;;5045423;28;20045;-87
2021/12/22 08:17:27;;;;;;;0.00;0.00;;;-3.70;99.90;;;;;;5061145;28;20118;-87
2021/12/22 08:19:59;;;;;;;0.00;0.00;;;-3.60;99.90;;;;;;5046124;28;20041;-90
2021/12/22 08:22:25;;;;;;;0.00;0.00;;;-3.60;99.90;;;;;;5043871;28;20401;-89
2021/12/22 08:24:51;;;;;;;0.00;0.00;;;-2.80;99.90;;;;;;5053694;28;20048;-91
2021/12/22 08:27:19;;;;;;;0.10;0.08;;;-3.40;99.90;;;;;;5056842;28;20147;-86
2021/12/22 08:29:45;;;;;;;0.00;0.00;;;-3.40;99.90;;;;;;5073849;28;20049;-88
2021/12/22 08:32:12;;;;;;;0.38;0.32;;;-3.30;99.90;;;;;;5056670;28;20412;-87
2021/12/22 08:34:41;;;;;;;0.00;0.00;;;-3.00;99.90;;;;;;5057288;28;20376;-88
2021/12/22 08:40:03;;;;;;;0.00;0.00;;;-3.30;99.90;;;;;;5073242;28;20049;-86
2021/12/22 08:42:29;;;;;;;0.38;0.38;;;-3.20;99.90;;;;;;5056528;28;20044;-87
2021/12/22 08:44:58;;;;;;;0.00;0.00;;;-3.10;99.90;;;;;;5056635;28;20373;-87
2021/12/22 08:47:23;;;;;;;0.77;0.55;;;-3.40;99.90;;;;;;5055993;28;20134;-87
2021/12/22 08:49:52;;;;;;;0.00;0.00;;;-3.10;99.90;;;;;;5073325;28;20059;-86
2021/12/22 08:52:18;;;;;;;0.17;0.13;;;-3.00;99.90;;;;;;5056417;28;20476;-86
2021/12/22 08:54:47;;;;;;;0.38;0.38;;;-2.90;99.90;;;;;;5072767;28;20091;-87
2021/12/22 08:57:15;;;;;;;0.15;0.15;;;-2.70;99.90;;;;;;5073202;28;20049;-87
2021/12/22 08:59:41;;;;;;;0.20;0.20;;;-2.60;99.90;;;;;;5073233;28;20494;-87
2021/12/22 09:02:07;;;;;;;1.67;1.58;;;-2.40;99.90;;;;;;5072947;28;20095;-87
2021/12/22 09:04:36;;;;;;;2.00;1.30;;;-2.20;99.90;;;;;;5072836;28;20041;-87
2021/12/22 09:07:02;;;;;;;0.00;0.00;;;-2.00;99.90;;;;;;5073161;28;20373;-87
2021/12/22 09:09:32;;;;;;;0.40;0.40;;;-1.90;99.90;;;;;;5058858;28;20041;-87
2021/12/22 09:12:01;;;;;;;0.38;0.38;;;-2.10;99.90;;;;;;5076379;28;20048;-87
2021/12/22 09:14:32;;;;;;;0.08;0.00;;;-1.20;99.90;;;;;;5059711;28;20056;-87
2021/12/22 09:17:00;;;;;;;0.00;0.00;;;-1.90;99.90;;;;;;5075813;28;20500;-87
2021/12/22 09:19:28;;;;;;;0.00;0.00;;;-1.90;99.90;;;;;;5059650;28;20047;-87
2021/12/22 09:21:54;;;;;;;0.00;0.00;;;-1.80;99.90;;;;;;5060024;28;20101;-87
2021/12/22 09:24:23;;;;;;;0.05;0.05;;;-2.20;99.90;;;;;;5076436;28;20426;-87
2021/12/22 09:26:52;;;;;;;0.57;0.55;;;-1.80;99.90;;;;;;5061111;28;20048;-87
2021/12/22 09:29:20;;;;;;;0.20;0.10;;;-1.70;99.90;;;;;;5061805;28;20496;-87
2021/12/22 09:31:46;;;;;;;0.20;0.20;;;-1.50;99.90;;;;;;5062753;28;20113;-87
2021/12/22 09:34:15;;;;;;;0.15;0.15;;;-1.30;99.90;;;;;;5076930;28;20074;-87
2021/12/22 09:36:43;;;;;;;0.10;0.10;;;-1.10;99.90;;;;;;5076025;28;20412;-87
2021/12/22 09:39:11;;;;;;;0.15;0.15;;;-1.00;99.90;;;;;;5059336;28;20087;-87
2021/12/22 09:41:37;;;;;;;6.43;1.13;;;-1.00;99.90;;;;;;5076146;28;20049;-87
2021/12/22 09:44:04;;;;;;;4.20;1.20;;;-0.60;99.90;;;;;;5059069;28;20098;-87
2021/12/22 09:46:30;;;;;;;0.98;0.80;;;-0.20;99.90;;;;;;5073757;28;20488;-88
2021/12/22 09:49:07;;;;;;;2.85;1.13;;;0.30;99.90;;;;;;5075285;28;20105;-87
2021/12/22 09:54:00;;;;;;;4.80;0.70;;;1.20;99.90;;;;;;5075328;28;20052;-87
2021/12/22 09:56:33;;;;;;;0.00;0.00;;;1.20;99.90;;;;;;5058896;28;20048;-86
2021/12/22 09:59:02;;;;;;;3.03;0.90;;;1.90;99.90;;;;;;5059485;28;20040;-87
2021/12/22 10:01:27;;;;;;;1.65;0.28;;;1.60;99.90;;;;;;5058650;28;20487;-87
2021/12/22 10:03:59;;;;;;;0.05;0.03;;;1.70;99.90;;;;;;5059223;28;20058;-86
2021/12/22 10:06:26;;;;;;;0.10;0.10;;;1.60;99.90;;;;;;5058938;28;20086;-89
2021/12/22 10:09:00;;;;;;;1.00;0.80;;;1.40;99.90;;;;;;5058220;28;20106;-86
2021/12/22 10:11:31;;;;;;;1.40;0.77;;;1.30;99.90;;;;;;5075311;28;20080;-87
2021/12/22 10:13:57;;;;;;;0.10;0.10;;;1.20;99.90;;;;;;5058625;28;20056;-87
2021/12/22 10:16:25;;;;;;;0.00;0.00;;;1.40;99.90;;;;;;5058120;28;20037;-87
2021/12/22 10:19:09;;;;;;;4.47;0.55;;;2.20;99.90;;;;;;5058427;28;20041;-87
2021/12/22 10:21:50;;;;;;;0.00;0.00;;;1.70;99.90;;;;;;5074952;28;20135;-87
2021/12/22 10:24:15;;;;;;;0.65;0.65;;;1.90;99.90;;;;;;5058465;28;20102;-87
2021/12/22 10:26:41;;;;;;;0.00;0.00;;;2.30;99.90;;;;;;5058718;28;20040;-87
2021/12/22 10:29:08;;;;;;;0.10;0.10;;;3.10;99.90;;;;;;5074074;28;20048;-87
2021/12/22 10:31:42;;;;;;;1.27;1.27;;;2.60;99.90;;;;;;5055328;28;20075;-87
2021/12/22 10:34:11;;;;;;;0.15;0.15;;;2.90;99.90;;;;;;5055057;28;20391;-88
2021/12/22 10:36:53;;;;;;;0.43;0.43;;;3.10;99.90;;;;;;5054651;28;20049;-88
2021/12/22 10:39:31;;;;;;;1.35;0.38;;;3.30;99.90;;;;;;5054879;28;20045;-83
2021/12/22 10:42:10;;;;;;;0.00;0.00;;;3.40;99.90;;;;;;5054055;28;20103;-82
2021/12/22 10:44:37;;;;;;;0.32;0.32;;;3.80;99.90;;;;;;5054037;28;20587;-82
2021/12/22 10:47:33;;;;;;;0.10;0.10;;;4.50;99.90;;;;;;5053929;28;20484;-82
2021/12/22 10:50:02;;;;;;;0.38;0.38;;;4.20;99.90;;;;;;5036959;28;20052;-81
2021/12/22 10:52:30;;;;;;;0.10;0.10;;;3.90;99.90;;;;;;5036638;28;20065;-82
2021/12/22 10:55:13;;;;;;;1.27;1.17;;;4.30;99.90;;;;;;5037384;28;20048;-89
2021/12/22 10:57:42;;;;;;;0.17;0.17;;;3.60;99.90;;;;;;5054743;28;20481;-89
2021/12/22 11:00:25;;;;;;;0.93;0.93;;;3.40;99.90;;;;;;5054161;28;20137;-90
2021/12/22 11:03:03;;;;;;;0.25;0.25;;;2.80;99.90;;;;;;5054160;28;20052;-89
2021/12/22 11:05:30;;;;;;;0.00;0.00;;;2.50;99.90;;;;;;5055444;28;20434;-89
2021/12/22 11:07:58;;;;;;;1.15;0.38;;;3.20;99.90;;;;;;5054329;28;20122;-90
2021/12/22 11:10:35;;;;;;;0.25;0.00;;;2.50;99.90;;;;;;5054411;28;20065;-90
2021/12/22 11:13:06;;;;;;;0.05;0.05;;;2.70;99.90;;;;;;5037458;28;20064;-90
2021/12/22 11:15:43;;;;;;;1.08;0.28;;;2.90;99.90;;;;;;5054013;28;20056;-90
2021/12/22 11:18:29;;;;;;;0.20;0.20;;;3.00;99.90;;;;;;5053924;28;20138;-90
2021/12/22 11:21:08;;;;;;;0.85;0.85;;;3.30;99.90;;;;;;5054055;28;20053;-89
2021/12/22 11:23:35;;;;;;;0.25;0.25;;;3.60;99.90;;;;;;5054677;28;20103;-89
2021/12/22 11:26:04;;;;;;;0.00;0.00;;;3.70;99.90;;;;;;5054115;28;20040;-90
2021/12/22 11:28:30;;;;;;;0.00;0.00;;;4.00;99.90;;;;;;5053457;28;20536;-90
2021/12/22 11:30:57;;;;;;;0.10;0.10;;;3.70;99.90;;;;;;5055907;28;20036;-90
2021/12/22 11:33:25;;;;;;;0.13;0.05;;;3.50;99.90;;;;;;5055593;28;20053;-90
2021/12/22 11:35:55;;;;;;;0.98;0.98;;;3.50;99.90;;;;;;5055187;28;20053;-90
2021/12/22 11:38:22;;;;;;;0.10;0.10;;;3.60;99.90;;;;;;5073725;28;20499;-90
2021/12/22 11:40:55;;;;;;;1.67;0.80;;;3.30;99.90;;;;;;5056849;28;20080;-91
2021/12/22 11:43:21;;;;;;;0.08;0.08;;;3.30;99.90;;;;;;5057326;28;20074;-91
2021/12/22 11:45:48;;;;;;;0.00;0.00;;;3.20;99.90;;;;;;5057080;28;20055;-90
2021/12/22 11:48:16;;;;;;;0.60;0.32;;;3.10;99.90;;;;;;5073261;28;20515;-90
2021/12/22 11:50:46;;;;;;;0.22;0.22;;;2.90;99.90;;;;;;5056654;28;20094;-90
2021/12/22 11:53:12;;;;;;;0.00;0.00;;;3.30;99.90;;;;;;5056513;28;20518;-90
2021/12/22 11:55:49;;;;;;;0.10;0.10;;;3.30;99.90;;;;;;5056716;28;20431;-90
2021/12/22 11:58:24;;;;;;;0.00;0.00;;;2.90;99.90;;;;;;5056516;28;20045;-90
2021/12/22 12:00:50;;;;;;;0.85;0.25;;;2.70;99.90;;;;;;5056822;28;20040;-91
2021/12/22 12:03:34;;;;;;;0.00;0.00;;;2.60;99.90;;;;;;5056378;28;20484;-90
2021/12/22 12:06:23;;;;;;;0.05;0.05;;;2.80;99.90;;;;;;5056876;28;20052;-91
2021/12/22 12:08:52;;;;;;;0.00;0.00;;;2.70;99.90;;;;;;5056825;28;20131;-91
2021/12/22 12:14:38;;;;;;;0.50;0.47;;;2.70;99.90;;;;;;5074134;28;20055;-91
2021/12/22 12:23:33;;;;;;;0.15;0.15;;;2.90;99.90;;;;;;5074199;28;20083;-91
2021/12/22 12:26:04;;;;;;;0.00;0.00;;;3.10;99.90;;;;;;5056374;28;20484;-91
2021/12/22 12:28:43;;;;;;;0.63;0.38;;;3.20;99.90;;;;;;5057027;28;20049;-91
2021/12/22 12:31:09;;;;;;;0.10;0.08;;;3.10;99.90;;;;;;5057475;28;20495;-91
2021/12/22 12:33:45;;;;;;;0.00;0.00;;;2.90;99.90;;;;;;5057256;28;20049;-91
2021/12/22 12:36:15;;;;;;;0.20;0.20;;;3.00;99.90;;;;;;5074426;28;20052;-90
2021/12/22 12:38:41;;;;;;;0.28;0.28;;;3.40;99.90;;;;;;5074029;28;20369;-91
2021/12/22 12:41:17;;;;;;;0.93;0.40;;;3.10;99.90;;;;;;5057720;28;20077;-91
2021/12/22 12:43:47;;;;;;;1.55;0.30;;;3.00;99.90;;;;;;5076249;28;20079;-91
2021/12/22 12:46:25;;;;;;;0.63;0.57;;;3.00;99.90;;;;;;5061292;28;20052;-92
2021/12/22 12:49:07;;;;;;;0.00;0.00;;;2.90;99.90;;;;;;5060825;28;20052;-91
2021/12/22 12:51:42;;;;;;;0.08;0.08;;;2.80;99.90;;;;;;5060867;28;20365;-92
2021/12/22 12:54:24;;;;;;;0.32;0.20;;;2.70;99.90;;;;;;5077691;28;20048;-91
2021/12/22 12:56:59;;;;;;;0.30;0.30;;;3.10;99.90;;;;;;5044469;28;20048;-91
2021/12/22 12:59:40;;;;;;;0.00;0.00;;;2.30;99.90;;;;;;5060820;28;20048;-92
2021/12/22 13:02:10;;;;;;;0.88;0.28;;;2.10;99.90;;;;;;5060845;28;20045;-91
2021/12/22 13:04:38;;;;;;;0.75;0.28;;;2.00;99.90;;;;;;5060326;28;20102;-91
2021/12/22 13:07:13;;;;;;;0.00;0.00;;;1.90;99.90;;;;;;5059741;28;20049;-91
2021/12/22 13:09:43;;;;;;;2.25;1.40;;;1.90;99.90;;;;;;5059767;28;20399;-91
2021/12/22 13:17:42;;;;;;;1.75;0.60;;;1.80;99.90;;;;;;5076717;28;20378;-91
2021/12/22 13:20:10;;;;;;;0.35;0.35;;;1.70;99.90;;;;;;5059914;28;20500;-91
2021/12/22 13:22:37;;;;;;;0.38;0.38;;;1.70;99.90;;;;;;5059145;28;20051;-91
2021/12/22 13:25:16;;;;;;;1.75;0.45;;;2.80;99.90;;;;;;5059869;28;20086;-91
2021/12/22 13:27:47;;;;;;;0.55;0.20;;;1.70;99.90;;;;;;5059649;28;20469;-91